createdAt,value
2023-10-29T00:01:48.710Z,14.40
2023-10-29T00:04:53.114Z,13.10
2023-10-29T00:07:57.160Z,12.40
2023-10-29T00:11:01.135Z,14.20
2023-10-29T00:14:05.480Z,13.50
2023-10-29T00:17:09.481Z,13.00
2023-10-29T00:20:13.589Z,14.00
2023-10-29T00:23:17.875Z,14.50
2023-10-29T00:26:21.903Z,12.80
2023-10-29T00:29:26.764Z,14.80
2023-10-29T00:32:34.321Z,14.40
2023-10-29T00:35:38.386Z,14.00
2023-10-29T00:38:42.789Z,13.30
2023-10-29T00:44:51.051Z,13.40
2023-10-29T00:47:55.675Z,13.10
2023-10-29T00:54:05.542Z,12.80
2023-10-29T00:57:09.601Z,13.80
2023-10-29T01:00:19.070Z,13.50
2023-10-29T01:03:23.833Z,13.10
2023-10-29T01:06:29.186Z,13.50
2023-10-29T01:09:34.996Z,14.30
2023-10-29T01:12:39.589Z,14.30
2023-10-29T01:18:47.812Z,13.20
2023-10-29T01:21:51.891Z,14.00
2023-10-29T01:24:55.943Z,13.60
2023-10-29T01:28:01.228Z,12.20
2023-10-29T01:31:06.525Z,13.80
2023-10-29T01:34:10.491Z,14.60
2023-10-29T01:37:14.484Z,14.90
2023-10-29T01:40:18.586Z,16.00
2023-10-29T01:43:22.692Z,13.20
2023-10-29T01:46:26.948Z,12.70
2023-10-29T01:49:31.155Z,14.00
2023-10-29T01:52:38.359Z,13.80
2023-10-29T01:55:42.367Z,14.30
2023-10-29T01:58:46.368Z,13.70
2023-10-29T02:01:51.592Z,14.40
2023-10-29T02:04:55.674Z,13.90
2023-10-29T02:08:00.382Z,15.20
2023-10-29T02:11:04.402Z,13.20
2023-10-29T02:14:09.088Z,12.80
2023-10-29T02:17:14.443Z,15.50
2023-10-29T02:20:18.638Z,13.90
2023-10-29T02:23:22.812Z,14.20
2023-10-29T02:26:26.976Z,14.60
2023-10-29T02:29:31.416Z,13.80
2023-10-29T02:32:35.442Z,14.00
2023-10-29T02:35:39.653Z,15.00
2023-10-29T02:38:44.569Z,15.00
2023-10-29T02:41:50.776Z,13.90
2023-10-29T02:44:55.807Z,13.50
2023-10-29T02:47:59.886Z,13.50
2023-10-29T02:51:04.545Z,12.70
2023-10-29T02:57:14.747Z,12.50
2023-10-29T03:00:18.991Z,13.60
2023-10-29T03:03:23.072Z,13.80
2023-10-29T03:06:27.332Z,14.00
2023-10-29T03:09:31.427Z,13.00
2023-10-29T03:12:35.433Z,13.00
2023-10-29T03:15:39.413Z,14.00
2023-10-29T03:18:43.412Z,14.00
2023-10-29T03:21:49.221Z,13.00
2023-10-29T03:24:53.271Z,13.20
2023-10-29T03:27:57.968Z,13.10
2023-10-29T03:31:03.442Z,14.10
2023-10-29T03:34:09.242Z,13.10
2023-10-29T03:37:13.304Z,13.90
2023-10-29T03:40:17.410Z,13.80
2023-10-29T03:43:21.357Z,12.10
2023-10-29T03:46:25.339Z,13.30
2023-10-29T03:49:29.441Z,13.00
2023-10-29T03:52:33.401Z,13.00
2023-10-29T03:55:38.181Z,13.80
2023-10-29T03:58:42.248Z,13.00
2023-10-29T04:01:46.579Z,13.70
2023-10-29T04:05:05.586Z,12.30
2023-10-29T04:08:13.419Z,12.50
2023-10-29T04:11:17.377Z,12.80
2023-10-29T04:14:21.610Z,13.20
2023-10-29T04:17:25.930Z,12.40
2023-10-29T04:20:30.131Z,12.20
2023-10-29T04:23:34.652Z,12.50
2023-10-29T04:29:42.977Z,13.40
2023-10-29T04:32:47.068Z,13.30
2023-10-29T04:35:51.447Z,12.10
2023-10-29T04:38:55.565Z,12.30
2023-10-29T04:42:00.107Z,12.20
2023-10-29T04:45:05.236Z,12.80
2023-10-29T04:48:09.803Z,12.10
2023-10-29T04:51:13.938Z,11.90
2023-10-29T04:54:17.878Z,11.50
2023-10-29T04:57:22.744Z,11.80
2023-10-29T05:00:27.013Z,12.20
2023-10-29T05:03:31.136Z,11.50
2023-10-29T05:06:35.664Z,11.10
2023-10-29T05:09:39.775Z,12.40
2023-10-29T05:12:43.815Z,10.30
2023-10-29T05:15:47.761Z,11.00
2023-10-29T05:18:51.807Z,10.50
2023-10-29T05:21:55.990Z,11.20
2023-10-29T05:25:00.110Z,11.10
2023-10-29T05:28:04.396Z,10.40
2023-10-29T05:31:08.443Z,11.40
2023-10-29T05:34:12.672Z,10.00
2023-10-29T05:37:16.667Z,9.60
2023-10-29T05:40:20.745Z,10.70
2023-10-29T05:43:24.784Z,10.20
2023-10-29T05:46:28.865Z,10.40
2023-10-29T05:49:32.901Z,10.20
2023-10-29T05:52:37.097Z,9.90
2023-10-29T05:55:41.688Z,9.10
2023-10-29T06:01:49.817Z,10.40
2023-10-29T06:04:53.903Z,10.00
2023-10-29T06:07:58.329Z,9.80
2023-10-29T06:11:04.800Z,9.10
2023-10-29T06:14:09.566Z,8.60
2023-10-29T06:17:25.633Z,8.50
2023-10-29T06:20:31.128Z,9.00
2023-10-29T06:23:38.380Z,10.20
2023-10-29T06:26:42.593Z,8.10
2023-10-29T06:29:46.700Z,8.50
2023-10-29T06:32:51.222Z,7.90
2023-10-29T06:35:59.023Z,8.40
2023-10-29T06:39:03.523Z,8.20
2023-10-29T06:42:07.898Z,7.70
2023-10-29T06:45:12.085Z,7.70
2023-10-29T06:48:16.194Z,6.80
2023-10-29T06:51:22.208Z,7.20
2023-10-29T06:54:26.475Z,7.40
2023-10-29T06:57:30.840Z,8.30
2023-10-29T07:00:34.845Z,7.30
2023-10-29T07:03:39.530Z,7.70
2023-10-29T07:06:44.323Z,7.10
2023-10-29T07:09:48.560Z,7.30
2023-10-29T07:12:54.421Z,8.70
2023-10-29T07:16:01.014Z,8.90
2023-10-29T07:19:05.758Z,6.70
2023-10-29T07:22:09.864Z,7.10
2023-10-29T07:25:13.933Z,6.60
2023-10-29T07:28:19.044Z,7.90
2023-10-29T07:31:23.036Z,6.80
2023-10-29T07:34:27.238Z,6.70
2023-10-29T07:37:31.262Z,7.40
2023-10-29T07:40:37.461Z,6.80
2023-10-29T07:43:41.478Z,7.20
2023-10-29T07:46:45.458Z,7.30
2023-10-29T07:49:49.479Z,7.50
2023-10-29T07:52:53.534Z,6.20
2023-10-29T07:56:11.904Z,6.20
2023-10-29T07:59:16.150Z,7.10
2023-10-29T08:02:20.159Z,7.10
2023-10-29T08:05:24.298Z,6.30
2023-10-29T08:08:28.335Z,6.40
2023-10-29T08:11:32.431Z,6.60
2023-10-29T08:14:36.474Z,5.80
2023-10-29T08:17:41.256Z,6.70
2023-10-29T08:20:45.574Z,6.90
2023-10-29T08:23:50.070Z,6.30
2023-10-29T08:26:54.145Z,5.90
2023-10-29T08:29:58.534Z,6.20
2023-10-29T08:33:02.871Z,6.60
2023-10-29T08:36:07.965Z,5.90
2023-10-29T08:39:12.056Z,6.20
2023-10-29T08:42:16.017Z,6.20
2023-10-29T08:45:31.009Z,6.50
2023-10-29T08:48:42.470Z,5.60
2023-10-29T08:51:46.780Z,5.60
2023-10-29T08:54:51.874Z,5.20
2023-10-29T08:57:55.867Z,5.50
2023-10-29T09:01:00.032Z,6.70
2023-10-29T09:04:05.485Z,5.40
2023-10-29T09:07:09.757Z,5.10
2023-10-29T09:10:13.958Z,5.10
2023-10-29T09:13:20.398Z,5.40
2023-10-29T09:16:24.413Z,5.60
2023-10-29T09:19:29.074Z,5.20
2023-10-29T09:22:33.928Z,5.70
2023-10-29T09:25:37.997Z,5.20
2023-10-29T09:28:43.576Z,5.70
2023-10-29T09:31:47.791Z,6.30
2023-10-29T09:34:52.949Z,6.00
2023-10-29T09:37:56.906Z,4.60
2023-10-29T09:41:01.109Z,5.10
2023-10-29T09:44:11.734Z,4.40
2023-10-29T09:47:20.428Z,4.20
2023-10-29T09:50:25.032Z,4.70
2023-10-29T09:53:30.298Z,4.40
2023-10-29T09:56:35.274Z,4.70
2023-10-29T09:59:39.317Z,4.60
2023-10-29T10:02:58.198Z,3.80
2023-10-29T10:06:03.947Z,3.90
2023-10-29T10:09:08.797Z,4.10
2023-10-29T10:12:15.695Z,3.60
2023-10-29T10:15:21.049Z,4.10
2023-10-29T10:18:25.147Z,3.80
2023-10-29T10:21:43.481Z,3.50
2023-10-29T10:24:49.696Z,3.60
2023-10-29T10:27:57.799Z,3.20
2023-10-29T10:31:14.837Z,3.80
2023-10-29T10:34:20.387Z,3.20
2023-10-29T10:37:26.326Z,3.30
2023-10-29T10:40:32.610Z,3.20
2023-10-29T10:43:37.679Z,3.70
2023-10-29T10:46:52.753Z,3.20
2023-10-29T10:49:57.747Z,3.40
2023-10-29T10:53:02.791Z,3.40
2023-10-29T10:56:09.805Z,3.40
2023-10-29T10:59:14.332Z,3.40
2023-10-29T11:02:19.955Z,2.60
2023-10-29T11:05:31.437Z,2.90
2023-10-29T11:08:36.861Z,2.60
2023-10-29T11:11:48.149Z,2.60
2023-10-29T11:15:17.515Z,3.00
2023-10-29T11:18:33.809Z,2.60
2023-10-29T11:21:43.252Z,2.80
2023-10-29T11:25:06.163Z,2.90
2023-10-29T11:28:28.300Z,2.50
2023-10-29T11:31:32.353Z,2.30
2023-10-29T11:34:36.505Z,2.60
2023-10-29T11:37:40.704Z,2.70
2023-10-29T11:40:44.643Z,2.30
2023-10-29T11:44:20.759Z,2.70
2023-10-29T11:47:25.006Z,2.40
2023-10-29T11:50:29.002Z,2.60
2023-10-29T11:53:33.941Z,2.50
2023-10-29T11:56:39.573Z,2.70
2023-10-29T11:59:57.273Z,2.20
2023-10-29T12:03:01.728Z,2.10
2023-10-29T12:06:06.204Z,2.30
2023-10-29T12:09:26.008Z,2.10
2023-10-29T12:12:30.069Z,1.90
2023-10-29T12:15:34.537Z,2.20
2023-10-29T12:18:40.624Z,1.80
2023-10-29T12:21:53.029Z,2.20
2023-10-29T12:25:04.169Z,1.90
2023-10-29T12:28:12.098Z,1.70
2023-10-29T12:31:37.157Z,2.10
2023-10-29T12:34:52.200Z,1.50
2023-10-29T12:37:57.174Z,2.20
2023-10-29T12:41:06.784Z,1.90
2023-10-29T12:44:17.311Z,2.10
2023-10-29T12:47:23.111Z,2.00
2023-10-29T12:50:27.346Z,1.80
2023-10-29T12:53:32.769Z,1.80
2023-10-29T12:56:50.464Z,1.50
2023-10-29T12:59:54.562Z,2.00
2023-10-29T13:02:58.843Z,1.70
2023-10-29T13:06:03.198Z,1.60
2023-10-29T13:09:09.816Z,1.80
2023-10-29T13:12:13.934Z,1.50
2023-10-29T13:15:19.736Z,1.80
2023-10-29T13:18:23.981Z,1.60
2023-10-29T13:21:28.138Z,1.70
2023-10-29T13:24:33.767Z,1.70
2023-10-29T13:27:38.881Z,1.50
2023-10-29T13:30:43.300Z,1.60
2023-10-29T13:33:49.271Z,1.70
2023-10-29T13:36:53.227Z,1.50
2023-10-29T13:39:57.207Z,2.00
2023-10-29T13:43:01.488Z,2.10
2023-10-29T13:46:06.590Z,2.60
2023-10-29T13:49:11.670Z,2.50
2023-10-29T13:52:15.999Z,2.30
2023-10-29T13:58:28.361Z,1.70
2023-10-29T14:01:32.885Z,2.00
2023-10-29T14:04:36.876Z,2.00
2023-10-29T14:07:40.789Z,1.90
2023-10-29T14:10:44.793Z,1.80
2023-10-29T14:13:51.255Z,2.00
2023-10-29T14:16:55.256Z,2.10
2023-10-29T14:19:59.290Z,2.30
2023-10-29T14:23:05.276Z,2.30
2023-10-29T14:26:09.268Z,2.70
2023-10-29T14:29:14.101Z,2.70
2023-10-29T14:32:18.044Z,2.30
2023-10-29T14:35:22.283Z,2.20
2023-10-29T14:38:28.451Z,2.20
2023-10-29T14:41:32.615Z,2.30
2023-10-29T14:44:37.285Z,1.80
2023-10-29T14:47:41.336Z,1.70
2023-10-29T14:50:45.682Z,1.80
2023-10-29T14:56:53.862Z,1.90
2023-10-29T14:59:58.279Z,2.30
2023-10-29T15:03:02.580Z,1.70
2023-10-29T15:06:11.078Z,1.60
2023-10-29T15:09:16.088Z,1.70
2023-10-29T15:12:20.576Z,1.70
2023-10-29T15:15:29.718Z,1.80
2023-10-29T15:18:34.737Z,1.80
2023-10-29T15:21:38.897Z,2.00
2023-10-29T15:24:42.975Z,1.80
2023-10-29T15:27:47.001Z,1.90
2023-10-29T15:30:51.248Z,2.20
2023-10-29T15:33:56.151Z,2.40
2023-10-29T15:37:00.161Z,2.90
2023-10-29T15:40:05.292Z,2.20
2023-10-29T15:43:09.322Z,2.60
2023-10-29T15:46:13.773Z,2.20
2023-10-29T15:52:22.097Z,2.10
2023-10-29T15:55:26.121Z,2.30
2023-10-29T15:58:30.451Z,2.40
2023-10-29T16:01:36.043Z,2.80
2023-10-29T16:04:40.211Z,2.70
2023-10-29T16:07:44.426Z,2.40
2023-10-29T16:10:48.460Z,2.20
2023-10-29T16:13:52.556Z,2.40
2023-10-29T16:16:57.016Z,3.50
2023-10-29T16:20:01.175Z,3.60
2023-10-29T16:23:05.412Z,3.50
2023-10-29T16:26:10.900Z,3.00
2023-10-29T16:29:16.112Z,3.50
2023-10-29T16:32:20.874Z,3.40
2023-10-29T16:35:25.474Z,3.70
2023-10-29T16:41:35.850Z,3.10
2023-10-29T16:44:40.576Z,3.10
2023-10-29T16:51:02.747Z,3.10
2023-10-29T16:54:08.211Z,2.80
2023-10-29T16:57:13.809Z,2.80
2023-10-29T17:00:19.015Z,2.40
2023-10-29T17:03:23.720Z,3.10
2023-10-29T17:06:29.349Z,2.90
2023-10-29T17:09:34.136Z,2.70
2023-10-29T17:12:39.502Z,3.50
2023-10-29T17:15:44.303Z,3.00
2023-10-29T17:18:49.304Z,3.30
2023-10-29T17:21:54.065Z,3.20
2023-10-29T17:24:58.834Z,3.00
2023-10-29T17:28:03.858Z,2.80
2023-10-29T17:31:13.048Z,3.10
2023-10-29T17:34:18.578Z,3.10
2023-10-29T17:37:23.195Z,4.00
2023-10-29T17:40:27.942Z,3.70
2023-10-29T17:43:32.708Z,3.70
2023-10-29T17:49:41.973Z,3.80
2023-10-29T17:52:46.638Z,3.60
2023-10-29T17:55:53.072Z,3.50
2023-10-29T17:58:58.084Z,4.20
2023-10-29T18:02:02.698Z,3.60
2023-10-29T18:05:10.319Z,4.10
2023-10-29T18:08:14.762Z,3.90
2023-10-29T18:11:19.501Z,3.90
2023-10-29T18:14:25.460Z,3.70
2023-10-29T18:17:29.764Z,4.00
2023-10-29T18:20:35.300Z,3.90
2023-10-29T18:23:40.061Z,3.90
2023-10-29T18:26:44.943Z,4.30
2023-10-29T18:29:50.317Z,4.40
2023-10-29T18:32:56.862Z,4.40
2023-10-29T18:36:11.807Z,3.80
2023-10-29T18:39:16.272Z,4.20
2023-10-29T18:45:26.024Z,4.60
2023-10-29T18:48:30.761Z,4.70
2023-10-29T18:51:35.689Z,4.40
2023-10-29T18:54:40.493Z,4.10
2023-10-29T18:57:45.136Z,5.00
2023-10-29T19:00:51.489Z,5.30
2023-10-29T19:03:59.334Z,4.60
2023-10-29T19:07:04.801Z,5.50
2023-10-29T19:10:09.804Z,4.10
2023-10-29T19:13:14.613Z,4.20
2023-10-29T19:16:19.295Z,4.00
2023-10-29T19:19:24.029Z,4.30
2023-10-29T19:22:29.520Z,4.30
2023-10-29T19:25:36.517Z,4.20
2023-10-29T19:28:41.314Z,4.70
2023-10-29T19:31:46.069Z,4.70
2023-10-29T19:34:52.250Z,4.60
2023-10-29T19:37:56.913Z,4.10
2023-10-29T19:41:01.897Z,4.30
2023-10-29T19:44:07.109Z,4.80
2023-10-29T19:47:11.932Z,4.00
2023-10-29T19:50:17.233Z,4.60
2023-10-29T19:53:22.216Z,3.80
2023-10-29T19:56:28.032Z,4.20
2023-10-29T19:59:32.998Z,4.40
2023-10-29T20:02:37.673Z,4.30
2023-10-29T20:05:42.447Z,4.10
2023-10-29T20:08:48.483Z,4.50
2023-10-29T20:11:53.196Z,3.90
2023-10-29T20:14:57.773Z,3.80
2023-10-29T20:18:03.359Z,3.80
2023-10-29T20:21:19.061Z,5.10
2023-10-29T20:24:25.029Z,5.60
2023-10-29T20:27:29.412Z,5.10
2023-10-29T20:30:33.863Z,5.70
2023-10-29T20:33:39.173Z,5.70
2023-10-29T20:36:43.936Z,5.30
2023-10-29T20:39:48.212Z,5.60
2023-10-29T20:42:52.909Z,5.40
2023-10-29T20:45:57.504Z,4.60
2023-10-29T20:49:01.640Z,4.30
2023-10-29T20:52:06.137Z,4.80
2023-10-29T20:58:15.047Z,5.30
2023-10-29T21:01:19.097Z,4.80
2023-10-29T21:04:23.239Z,4.20
2023-10-29T21:07:27.281Z,4.20
2023-10-29T21:10:32.239Z,4.50
2023-10-29T21:13:36.353Z,4.80
2023-10-29T21:16:40.339Z,4.70
2023-10-29T21:19:44.584Z,5.20
2023-10-29T21:22:48.527Z,4.30
2023-10-29T21:25:56.710Z,4.20
2023-10-29T21:29:01.035Z,4.20
2023-10-29T21:32:05.137Z,5.30
2023-10-29T21:35:09.168Z,4.10
2023-10-29T21:38:13.213Z,4.30
2023-10-29T21:41:17.239Z,4.40
2023-10-29T21:44:21.728Z,4.60
2023-10-29T21:47:26.161Z,4.00
2023-10-29T21:50:30.169Z,4.10
2023-10-29T21:53:35.298Z,5.00
2023-10-29T21:56:39.305Z,4.60
2023-10-29T21:59:43.318Z,4.70
2023-10-29T22:02:47.402Z,4.20
2023-10-29T22:06:05.150Z,4.20
2023-10-29T22:09:09.846Z,5.10
2023-10-29T22:12:13.864Z,4.60
2023-10-29T22:15:18.980Z,4.60
2023-10-29T22:18:23.067Z,4.50
2023-10-29T22:21:27.129Z,4.90
2023-10-29T22:24:31.164Z,4.60
2023-10-29T22:27:35.412Z,4.10
2023-10-29T22:30:39.630Z,5.00
2023-10-29T22:33:44.798Z,4.80
2023-10-29T22:36:48.738Z,4.80
2023-10-29T22:39:52.756Z,4.30
2023-10-29T22:42:56.852Z,4.20
2023-10-29T22:46:02.010Z,5.30
2023-10-29T22:49:06.209Z,4.30
2023-10-29T22:52:10.198Z,4.70
2023-10-29T22:55:16.732Z,4.20
2023-10-29T22:58:20.714Z,4.40
2023-10-29T23:01:27.903Z,4.20
2023-10-29T23:04:32.049Z,3.90
2023-10-29T23:07:36.289Z,3.80
2023-10-29T23:10:40.518Z,4.10
2023-10-29T23:13:45.200Z,5.00
2023-10-29T23:16:49.264Z,4.40
2023-10-29T23:19:53.771Z,4.60
2023-10-29T23:22:57.791Z,4.70
2023-10-29T23:26:02.303Z,4.30
2023-10-29T23:29:06.557Z,4.30
2023-10-29T23:32:10.646Z,4.40
2023-10-29T23:35:15.002Z,4.30
2023-10-29T23:38:19.729Z,3.90
2023-10-29T23:41:23.692Z,3.80
2023-10-29T23:44:27.697Z,4.60
2023-10-29T23:47:32.197Z,4.20
2023-10-29T23:50:36.207Z,4.20
2023-10-29T23:53:40.388Z,4.30
2023-10-29T23:56:44.443Z,3.80
2023-10-29T23:59:48.588Z,4.40
